Test Metars

LFOB 280430Z AUTO VRB02KT 9999 BKN007 OVC011 09/09 Q1010 TEMPO OVC004

 

Available data for LFOB from the past 2 hours
BEAUVAIS/TILLE(A
Metar
LFOB 200130Z AUTO 26008KT CAVOK 06/04 Q1014 NOSIG

01:30 UTC

Wind: 260° 8kt

Visibility:

Sky:

Temp: 6 deg C / 42.8 deg F

Dewpoint: 4 deg C / 39.2 deg F

Pressure: 1014 hPa

TAF
TAF LFOB 192300Z 2000/2024 26005KT 9999 SCT035 BECMG 2007/2010 19015KT 4000 RA BKN005 OVC012 FM201230 26012KT 9999 BKN025 TEMPO 2014/2017 30017G27KT 3000 SHRA BKN015TCU TEMPO 2017/2022 3000 SHRA BKN015TCU

Réalisateur / Photographe